Tungsten, Nevada
Current Conditions -  °F | °C
As of 4:56 PM on Saturday 25 Oct 2014 (Local Time) from KWMC Reporting Station
Clear Clear  
Wind Chill: 59°   Ceiling: Unl
Heat Index: 59°   Visibility: 10mi
Dew Point: 31°   Wind: 17mph
Humidity: 35%   Direction: 220°SW
Pressure: 29.93"   Gusts: 25mph
Location:  40.601°N, 117.984°W
Report Text: KWMC 252356Z AUTO 22015G22KT 10SM CLR 15/M01 A2993 RMK AO2 PK WND 27030/2257 SLP111 T01501006 10233 20150 51017
Loading
Personal Weather Stations






























Interactive Weather Map
Tropical Storm Tracking
New forecast layout! Learn more

10-Day Weather Forecast

Advertisements
Track Severe Weather on mobile